Omsk Central Airport
UNOO : now visible

Airfield :











YOU CAN JOIN US ON...

 
LOGIN :

Register | Disclaimer

   EN    FR    IT 

 









Legend :    VFR   Marginal VFR   IFR   Intensive IFR   Very Intensive IFR
Visi :
Ceiling :
>= 8 km
>= 3000ft
5 to 8 km
1000 to 3000 ft
1500m to 5 km
500 to 1000 ft
800 to 1500m
200 to 500 ft
< 800m
< 200 ft
Symbols :   Thunderstorms  Fog  Heavy snow  Heavy precipitations  Wind > 20 kt






- Airport Elevation : 311 ft
- IATA code : OMS


UNOO - Omsk Central

CURRENT METAR :
  • 221300Z 20006MPS 9999 SCT018 BKN033CB M04/M07 Q1006 R25/820540 NOSIG RMK QFE746

EXPIRED METARs :
  • 221230Z 20005MPS 9999 -SHSN SCT018 BKN033CB M04/M07 Q1006 R25/820540 NOSIG RMK QFE746
  • 221200Z 20005MPS 9999 -SHSN SCT018 BKN033CB M05/M07 Q1006 R25/820540 NOSIG RMK QFE746
  • 221130Z 20005MPS 8000 -SHSN SCT016 BKN033CB M05/M07 Q1006 R25/820540 NOSIG RMK QFE746
  • 221100Z 20004MPS 8000 -SHSN SCT016 BKN033CB M05/M07 Q1006 R25/820540 NOSIG RMK QFE746
  • 221030Z 20004MPS 8000 -SHSN SCT016 BKN033CB M05/M07 Q1006 R25/820540 NOSIG RMK QFE746

TAF TAF UNOO
Valid from the 22 at 12:00 until the 23 at 12:00 UTC


221050Z 2212/2312 19006G11MPS 6000 -SHSN BKN010 BKN030CB
TEMPO 2212/2218 2100 -SHSN BLSN
FM221800 19007G16MPS 3100 -SHSN BLSN BKN007 BKN020CB
TEMPO 2218/2309 1000 SHSN BLSN BKN005 BKN020CB



MET'MAP, your aeronautical weather chart ! - Copyright ORBIFLY December 2007 - Disclaimer

ORBIFLY MET'MAP TEAM :

Programming & Development : Alexandra Zaïnal
Concept & original design : Baudouin d'Aumeries
Assistance for programming : Marc-Olivier Méhu
Technical & hardware support : Manuel Goepfert

Contact : metmap@orbifly.com




SOURCES & CREDITS :

   NOAA       Earth
Advisory